Time;durP1;ratioP1;P1;durP2;ratioP2;P2;SDS_P1;SDS_P2;PMS_P1;PMS_P2;Temp;Humidity;BMP_temperature;BMP_pressure;BME280_temperature;BME280_humidity;BME280_pressure;Samples;Min_cycle;Max_cycle;Signal;HPM_P1;HPM_P2
2023/02/28 00:00:29;;;;;;;23.95;22.65;;;;;;;;;;5143347;27;20212;-82
2023/02/28 00:02:57;;;;;;;23.30;21.80;;;;;;;;;;5142257;27;20213;-81
2023/02/28 00:05:25;;;;;;;22.60;21.40;;;;;;;;;;5141971;27;20281;-83
2023/02/28 00:07:52;;;;;;;23.65;22.35;;;;;;;;;;5143075;27;20249;-82
2023/02/28 00:10:20;;;;;;;23.08;21.65;;;;;;;;;;5142346;27;20658;-83
2023/02/28 00:12:48;;;;;;;22.90;21.60;;;;;;;;;;5141696;27;20261;-82
2023/02/28 00:15:15;;;;;;;22.50;21.30;;;;;;;;;;5142264;27;20224;-81
2023/02/28 00:17:42;;;;;;;22.30;21.00;;;;;;;;;;5142932;27;20201;-82
2023/02/28 00:20:12;;;;;;;23.20;21.80;;;;;;;;;;5144183;27;20220;-81
2023/02/28 00:22:40;;;;;;;22.27;21.08;;;;;;;;;;5134731;27;20242;-82
2023/02/28 00:25:07;;;;;;;22.70;21.40;;;;;;;;;;5153034;27;20271;-82
2023/02/28 00:27:34;;;;;;;22.48;21.27;;;;;;;;;;5145794;27;20211;-83
2023/02/28 00:30:01;;;;;;;22.23;21.02;;;;;;;;;;5143953;27;20208;-83
2023/02/28 00:32:29;;;;;;;22.80;21.40;;;;;;;;;;5142951;27;20276;-82
2023/02/28 00:34:56;;;;;;;22.38;21.17;;;;;;;;;;5142443;27;20289;-82
2023/02/28 00:37:24;;;;;;;21.95;20.75;;;;;;;;;;5142899;27;20204;-82
2023/02/28 00:39:51;;;;;;;22.23;21.02;;;;;;;;;;5142633;27;20224;-82
2023/02/28 00:42:18;;;;;;;21.55;20.35;;;;;;;;;;5142059;27;20718;-82
2023/02/28 00:44:45;;;;;;;22.77;21.35;;;;;;;;;;5142466;27;20257;-81
2023/02/28 00:47:12;;;;;;;23.00;21.45;;;;;;;;;;5140720;27;20207;-82
2023/02/28 00:49:39;;;;;;;23.23;21.70;;;;;;;;;;5141879;27;20199;-82
2023/02/28 00:52:06;;;;;;;22.85;21.65;;;;;;;;;;5141391;27;20200;-82
2023/02/28 00:54:35;;;;;;;22.70;21.30;;;;;;;;;;5141711;27;20723;-82
2023/02/28 00:57:02;;;;;;;22.25;21.02;;;;;;;;;;5140836;27;20231;-82
2023/02/28 00:59:29;;;;;;;22.73;21.20;;;;;;;;;;5140793;27;20219;-82
2023/02/28 01:01:56;;;;;;;23.17;21.77;;;;;;;;;;5141374;27;20248;-82
2023/02/28 01:04:23;;;;;;;22.38;21.08;;;;;;;;;;5141979;27;20204;-82
2023/02/28 01:06:50;;;;;;;23.35;22.00;;;;;;;;;;5140661;27;20215;-82
2023/02/28 01:09:17;;;;;;;22.33;21.08;;;;;;;;;;5141256;27;20208;-82
2023/02/28 01:11:45;;;;;;;23.02;21.50;;;;;;;;;;5141053;27;20229;-82
2023/02/28 01:14:13;;;;;;;23.38;22.17;;;;;;;;;;5140998;27;20204;-81
2023/02/28 01:16:40;;;;;;;24.08;22.42;;;;;;;;;;5141248;27;20629;-82
2023/02/28 01:19:07;;;;;;;22.38;21.17;;;;;;;;;;5141506;27;20217;-82
2023/02/28 01:21:35;;;;;;;23.88;22.48;;;;;;;;;;5140272;27;20201;-82
2023/02/28 01:24:02;;;;;;;23.13;21.80;;;;;;;;;;5141445;27;20254;-82
2023/02/28 01:26:29;;;;;;;22.95;21.65;;;;;;;;;;5141203;27;20743;-82
2023/02/28 01:28:58;;;;;;;22.92;21.52;;;;;;;;;;5140844;27;20200;-82
2023/02/28 01:31:25;;;;;;;22.08;20.77;;;;;;;;;;5139472;27;20258;-83
2023/02/28 01:33:52;;;;;;;22.63;21.38;;;;;;;;;;5140840;27;20182;-82
2023/02/28 01:36:20;;;;;;;21.92;20.50;;;;;;;;;;5140696;27;20246;-82
2023/02/28 01:38:48;;;;;;;22.27;21.02;;;;;;;;;;5140952;27;20258;-82
2023/02/28 01:41:17;;;;;;;22.02;20.83;;;;;;;;;;5139997;27;20713;-82
2023/02/28 01:43:55;;;;;;;21.63;20.33;;;;;;;;;;5139839;27;20231;-82
2023/02/28 01:46:23;;;;;;;22.73;21.42;;;;;;;;;;5140272;27;20240;-82
2023/02/28 01:48:52;;;;;;;22.10;20.80;;;;;;;;;;5140141;27;20193;-82
2023/02/28 01:51:21;;;;;;;23.08;21.75;;;;;;;;;;5140409;27;20224;-83
2023/02/28 01:53:50;;;;;;;22.58;20.95;;;;;;;;;;5140176;27;20207;-82
2023/02/28 01:56:22;;;;;;;22.27;21.00;;;;;;;;;;5140050;27;20270;-81
2023/02/28 01:58:49;;;;;;;22.27;20.98;;;;;;;;;;5140456;27;20254;-82
2023/02/28 02:01:21;;;;;;;22.67;21.48;;;;;;;;;;5140436;27;20198;-81
2023/02/28 02:03:54;;;;;;;22.25;20.95;;;;;;;;;;5140628;27;20608;-82
2023/02/28 02:06:21;;;;;;;23.15;21.70;;;;;;;;;;5139380;27;20279;-82
2023/02/28 02:08:48;;;;;;;23.00;21.60;;;;;;;;;;5140381;27;20247;-82
2023/02/28 02:11:18;;;;;;;23.33;21.70;;;;;;;;;;5139215;27;20661;-83
2023/02/28 02:13:58;;;;;;;23.15;21.70;;;;;;;;;;5140199;27;20237;-82
2023/02/28 02:16:34;;;;;;;23.67;22.20;;;;;;;;;;5139056;27;20227;-82
2023/02/28 02:19:09;;;;;;;23.02;21.48;;;;;;;;;;5140206;27;20212;-82
2023/02/28 02:22:03;;;;;;;23.50;22.05;;;;;;;;;;5139758;27;20289;-82
2023/02/28 02:24:47;;;;;;;23.42;22.00;;;;;;;;;;5140842;27;20313;-82
2023/02/28 02:27:32;;;;;;;23.13;21.73;;;;;;;;;;5140465;27;20217;-82
2023/02/28 02:30:09;;;;;;;22.42;21.13;;;;;;;;;;5129787;27;20329;-82
2023/02/28 02:32:44;;;;;;;23.65;21.95;;;;;;;;;;5139292;27;20299;-82
2023/02/28 02:35:16;;;;;;;23.00;21.60;;;;;;;;;;5140240;27;20214;-82
2023/02/28 02:37:44;;;;;;;22.63;21.13;;;;;;;;;;5140668;27;20203;-82
2023/02/28 02:40:14;;;;;;;22.27;21.00;;;;;;;;;;5140214;27;20228;-82
2023/02/28 02:42:44;;;;;;;22.90;21.45;;;;;;;;;;5139374;27;20260;-82
2023/02/28 02:45:13;;;;;;;24.27;22.80;;;;;;;;;;5139951;28;20281;-83
2023/02/28 02:47:41;;;;;;;23.60;22.30;;;;;;;;;;5139685;28;20649;-83
2023/02/28 02:50:09;;;;;;;23.25;21.85;;;;;;;;;;5139783;28;20637;-83
2023/02/28 02:52:40;;;;;;;23.00;21.63;;;;;;;;;;5139015;28;20229;-82
2023/02/28 02:55:10;;;;;;;23.10;21.70;;;;;;;;;;5139961;28;20265;-83
2023/02/28 02:57:39;;;;;;;22.55;21.35;;;;;;;;;;5139725;28;20206;-82
2023/02/28 03:00:08;;;;;;;22.58;21.33;;;;;;;;;;5140665;28;20287;-82
2023/02/28 03:02:36;;;;;;;23.52;22.02;;;;;;;;;;5140054;28;20279;-82
2023/02/28 03:05:05;;;;;;;22.85;21.50;;;;;;;;;;5140385;28;20211;-83
2023/02/28 03:07:32;;;;;;;23.45;22.02;;;;;;;;;;5140877;28;20264;-82
2023/02/28 03:10:01;;;;;;;23.20;21.80;;;;;;;;;;5141529;28;20202;-82
2023/02/28 03:12:34;;;;;;;22.90;21.67;;;;;;;;;;5140050;28;20210;-82
2023/02/28 03:15:06;;;;;;;22.58;21.27;;;;;;;;;;5140965;28;20259;-81
2023/02/28 03:17:41;;;;;;;22.70;21.40;;;;;;;;;;5142120;28;20237;-82
2023/02/28 03:20:14;;;;;;;22.77;21.27;;;;;;;;;;5142040;28;20206;-83
2023/02/28 03:22:52;;;;;;;22.50;21.20;;;;;;;;;;5141410;27;20630;-82
2023/02/28 03:25:22;;;;;;;22.63;21.05;;;;;;;;;;5145734;27;20223;-82
2023/02/28 03:27:53;;;;;;;22.05;20.85;;;;;;;;;;5145759;27;20693;-82
2023/02/28 03:30:24;;;;;;;22.48;21.15;;;;;;;;;;5146034;27;20186;-82
2023/02/28 03:32:54;;;;;;;22.40;21.02;;;;;;;;;;5145319;27;20194;-82
2023/02/28 03:35:23;;;;;;;22.33;21.10;;;;;;;;;;5145051;27;20261;-82
2023/02/28 03:37:52;;;;;;;22.25;21.05;;;;;;;;;;5146013;27;20232;-82
2023/02/28 03:40:22;;;;;;;22.60;21.20;;;;;;;;;;5145522;27;20224;-82
2023/02/28 03:42:49;;;;;;;22.67;21.38;;;;;;;;;;5145748;27;20189;-81
2023/02/28 03:45:18;;;;;;;22.52;21.23;;;;;;;;;;5149595;27;20215;-83
2023/02/28 03:47:48;;;;;;;22.50;21.10;;;;;;;;;;5147362;27;20268;-82
2023/02/28 03:50:17;;;;;;;22.13;20.77;;;;;;;;;;5147624;27;20255;-82
2023/02/28 03:52:47;;;;;;;22.15;20.95;;;;;;;;;;5147187;27;20243;-81
2023/02/28 03:55:16;;;;;;;22.02;20.83;;;;;;;;;;5147458;27;20222;-82
2023/02/28 03:57:52;;;;;;;22.40;21.20;;;;;;;;;;5146749;27;20198;-83
2023/02/28 04:00:20;;;;;;;22.33;20.73;;;;;;;;;;5145379;27;20225;-81
2023/02/28 04:02:52;;;;;;;22.50;21.20;;;;;;;;;;5144107;27;20231;-82
2023/02/28 04:05:19;;;;;;;22.90;21.55;;;;;;;;;;5145340;27;20229;-82
2023/02/28 04:07:46;;;;;;;22.88;21.50;;;;;;;;;;5145637;27;20237;-83
2023/02/28 04:10:14;;;;;;;23.55;22.25;;;;;;;;;;5146553;27;20234;-83
2023/02/28 04:12:41;;;;;;;23.35;21.98;;;;;;;;;;5146310;27;20206;-83
2023/02/28 04:15:11;;;;;;;22.60;21.27;;;;;;;;;;5147943;27;20248;-83
2023/02/28 04:17:38;;;;;;;23.25;21.95;;;;;;;;;;5148132;27;20198;-82
2023/02/28 04:20:09;;;;;;;23.63;22.33;;;;;;;;;;5147650;27;20231;-82
2023/02/28 04:22:36;;;;;;;23.45;22.15;;;;;;;;;;5146481;27;20666;-82
2023/02/28 04:25:03;;;;;;;23.13;21.83;;;;;;;;;;5147057;27;20244;-83
2023/02/28 04:27:30;;;;;;;23.50;22.08;;;;;;;;;;5149026;27;20234;-81
2023/02/28 04:29:57;;;;;;;22.85;21.55;;;;;;;;;;5145525;27;20203;-82
2023/02/28 04:32:26;;;;;;;22.95;21.55;;;;;;;;;;5141692;27;20209;-82
2023/02/28 04:34:53;;;;;;;22.63;21.42;;;;;;;;;;5140509;27;20211;-84
2023/02/28 04:37:20;;;;;;;22.05;20.85;;;;;;;;;;5151989;27;20231;-82
2023/02/28 04:39:47;;;;;;;21.90;20.70;;;;;;;;;;5155792;27;20195;-83
2023/02/28 04:42:14;;;;;;;23.25;21.85;;;;;;;;;;5148582;27;20723;-83
2023/02/28 04:44:41;;;;;;;22.45;21.17;;;;;;;;;;5144917;27;20190;-82
2023/02/28 04:47:08;;;;;;;22.45;21.02;;;;;;;;;;5142777;27;20223;-82
2023/02/28 04:49:36;;;;;;;22.95;21.65;;;;;;;;;;5143228;27;20203;-82
2023/02/28 04:52:03;;;;;;;22.45;21.25;;;;;;;;;;5142403;27;20207;-82
2023/02/28 04:54:31;;;;;;;21.65;20.45;;;;;;;;;;5142699;27;20243;-82
2023/02/28 04:56:58;;;;;;;22.95;21.58;;;;;;;;;;5141817;27;20560;-82
2023/02/28 04:59:25;;;;;;;22.25;20.95;;;;;;;;;;5142042;27;20242;-83
2023/02/28 05:01:52;;;;;;;22.42;21.23;;;;;;;;;;5140435;27;20283;-82
2023/02/28 05:04:19;;;;;;;22.55;21.35;;;;;;;;;;5141608;27;20202;-82
2023/02/28 05:06:47;;;;;;;23.00;21.77;;;;;;;;;;5140986;27;20213;-81
2023/02/28 05:09:14;;;;;;;22.80;21.50;;;;;;;;;;5141021;27;20208;-82
2023/02/28 05:11:41;;;;;;;22.02;20.83;;;;;;;;;;5140726;27;20198;-82
2023/02/28 05:14:11;;;;;;;22.42;21.05;;;;;;;;;;5141193;27;20213;-82
2023/02/28 05:16:38;;;;;;;21.98;20.70;;;;;;;;;;5140657;27;20222;-81
2023/02/28 05:19:05;;;;;;;24.10;22.52;;;;;;;;;;5140922;27;20227;-82
2023/02/28 05:21:33;;;;;;;22.42;21.13;;;;;;;;;;5139986;27;20229;-82
2023/02/28 05:24:02;;;;;;;24.15;22.50;;;;;;;;;;5140429;27;20209;-82
2023/02/28 05:26:29;;;;;;;22.35;21.15;;;;;;;;;;5140855;27;20227;-82
2023/02/28 05:28:56;;;;;;;23.23;21.83;;;;;;;;;;5140241;27;20230;-82
2023/02/28 05:31:23;;;;;;;22.60;21.20;;;;;;;;;;5140084;27;20227;-83
2023/02/28 05:33:51;;;;;;;22.80;21.48;;;;;;;;;;5140320;27;20198;-83
2023/02/28 05:36:18;;;;;;;23.45;22.05;;;;;;;;;;5139888;27;20229;-82
2023/02/28 05:38:47;;;;;;;22.60;21.25;;;;;;;;;;5140742;27;20235;-82
2023/02/28 05:41:15;;;;;;;22.90;21.60;;;;;;;;;;5140594;27;20274;-83
2023/02/28 05:43:42;;;;;;;23.35;21.95;;;;;;;;;;5139697;27;20197;-82
2023/02/28 05:46:11;;;;;;;22.30;21.00;;;;;;;;;;5139404;27;20247;-82
2023/02/28 05:48:38;;;;;;;21.85;20.65;;;;;;;;;;5140536;27;20239;-84
2023/02/28 05:51:06;;;;;;;22.17;20.88;;;;;;;;;;5140341;27;20203;-82
2023/02/28 05:53:33;;;;;;;23.10;21.67;;;;;;;;;;5139812;27;20201;-82
2023/02/28 05:56:01;;;;;;;22.08;20.77;;;;;;;;;;5140003;27;20275;-82
2023/02/28 05:58:30;;;;;;;22.08;20.88;;;;;;;;;;5140202;27;20210;-83
2023/02/28 06:00:57;;;;;;;22.77;21.38;;;;;;;;;;5140263;27;20217;-83
2023/02/28 06:03:24;;;;;;;22.75;21.35;;;;;;;;;;5139848;27;20229;-82
2023/02/28 06:05:51;;;;;;;23.10;21.60;;;;;;;;;;5138624;27;20277;-82
2023/02/28 06:08:19;;;;;;;24.08;22.30;;;;;;;;;;5140204;27;20200;-82
2023/02/28 06:10:46;;;;;;;23.10;21.80;;;;;;;;;;5140633;27;20662;-83
2023/02/28 06:13:13;;;;;;;22.92;21.52;;;;;;;;;;5139766;27;20222;-81
2023/02/28 06:15:41;;;;;;;22.23;20.92;;;;;;;;;;5140127;27;20225;-82
2023/02/28 06:18:09;;;;;;;23.23;21.92;;;;;;;;;;5140699;27;20211;-82
2023/02/28 06:20:36;;;;;;;23.90;22.33;;;;;;;;;;5140059;27;20272;-82
2023/02/28 06:23:03;;;;;;;23.70;21.77;;;;;;;;;;5140122;27;20296;-82
2023/02/28 06:25:30;;;;;;;22.52;21.10;;;;;;;;;;5139580;27;20222;-81
2023/02/28 06:27:57;;;;;;;23.52;22.05;;;;;;;;;;5139712;27;20198;-79
2023/02/28 06:30:26;;;;;;;23.83;22.27;;;;;;;;;;5135221;27;20231;-78
2023/02/28 06:32:54;;;;;;;23.20;21.38;;;;;;;;;;5134709;27;20210;-77
2023/02/28 06:35:21;;;;;;;22.65;21.25;;;;;;;;;;5135034;27;20292;-78
2023/02/28 06:37:48;;;;;;;22.42;21.02;;;;;;;;;;5135152;27;20201;-78
2023/02/28 06:40:16;;;;;;;21.92;20.52;;;;;;;;;;5135085;27;20259;-77
2023/02/28 06:42:43;;;;;;;22.83;21.42;;;;;;;;;;5134715;27;20209;-78
2023/02/28 06:45:10;;;;;;;23.00;21.35;;;;;;;;;;5135157;27;20274;-78
2023/02/28 06:47:38;;;;;;;21.60;20.30;;;;;;;;;;5134680;28;20606;-78
2023/02/28 06:50:07;;;;;;;22.02;20.63;;;;;;;;;;5133978;28;20678;-78
2023/02/28 06:52:36;;;;;;;23.33;21.90;;;;;;;;;;5134356;28;20325;-78
2023/02/28 06:55:03;;;;;;;21.42;20.13;;;;;;;;;;5134615;28;20203;-78
2023/02/28 06:57:30;;;;;;;21.90;20.50;;;;;;;;;;5135003;27;20232;-78
2023/02/28 06:59:57;;;;;;;22.83;21.35;;;;;;;;;;5138988;27;20244;-78
2023/02/28 07:02:24;;;;;;;22.48;21.05;;;;;;;;;;5137939;27;20295;-78
2023/02/28 07:04:51;;;;;;;22.13;20.85;;;;;;;;;;5139152;27;20206;-79
2023/02/28 07:07:20;;;;;;;22.50;20.40;;;;;;;;;;5138925;27;20630;-78
2023/02/28 07:09:46;;;;;;;23.17;21.65;;;;;;;;;;5139062;27;20201;-78
2023/02/28 07:12:13;;;;;;;22.60;21.15;;;;;;;;;;5138239;27;20255;-78
2023/02/28 07:14:40;;;;;;;22.10;20.77;;;;;;;;;;5137734;27;20210;-78
2023/02/28 07:17:08;;;;;;;21.90;20.60;;;;;;;;;;5138547;27;20225;-78
2023/02/28 07:19:35;;;;;;;22.40;21.10;;;;;;;;;;5138080;27;20209;-77
2023/02/28 07:22:03;;;;;;;23.20;21.48;;;;;;;;;;5137873;27;20693;-78
2023/02/28 07:24:31;;;;;;;22.55;21.15;;;;;;;;;;5139116;27;20202;-78
2023/02/28 07:26:59;;;;;;;22.58;21.27;;;;;;;;;;5137642;27;20226;-78
2023/02/28 07:29:26;;;;;;;22.50;21.00;;;;;;;;;;5138314;27;20224;-77
2023/02/28 07:31:53;;;;;;;21.77;20.48;;;;;;;;;;5137279;27;20195;-79
2023/02/28 07:34:20;;;;;;;22.38;21.17;;;;;;;;;;5138589;27;20206;-78
2023/02/28 07:36:47;;;;;;;22.20;20.90;;;;;;;;;;5137680;27;20272;-78
2023/02/28 07:39:14;;;;;;;22.35;21.05;;;;;;;;;;5138320;27;20205;-78
2023/02/28 07:41:43;;;;;;;22.70;21.40;;;;;;;;;;5137312;27;20218;-78
2023/02/28 07:44:10;;;;;;;22.10;20.73;;;;;;;;;;5138232;27;20203;-78
2023/02/28 07:46:37;;;;;;;21.15;20.05;;;;;;;;;;5138820;27;20251;-78
2023/02/28 07:49:05;;;;;;;22.13;20.83;;;;;;;;;;5137889;27;20377;-81
2023/02/28 07:51:32;;;;;;;21.67;20.23;;;;;;;;;;5137615;27;20199;-79
2023/02/28 07:53:59;;;;;;;21.17;19.88;;;;;;;;;;5138824;27;20269;-78
2023/02/28 07:56:26;;;;;;;21.98;20.67;;;;;;;;;;5138131;27;20265;-80
2023/02/28 07:58:54;;;;;;;22.00;20.83;;;;;;;;;;5138628;27;20207;-77
2023/02/28 08:01:21;;;;;;;21.55;20.35;;;;;;;;;;5137423;27;20218;-78
2023/02/28 08:03:48;;;;;;;21.85;20.65;;;;;;;;;;5137975;27;20197;-77
2023/02/28 08:06:21;;;;;;;22.55;21.35;;;;;;;;;;5137044;27;20274;-77
2023/02/28 08:08:48;;;;;;;21.98;20.65;;;;;;;;;;5137888;27;20237;-77
2023/02/28 08:11:16;;;;;;;22.52;21.33;;;;;;;;;;5137353;27;20197;-77
2023/02/28 08:13:43;;;;;;;21.70;20.50;;;;;;;;;;5137510;27;20255;-78
2023/02/28 08:16:14;;;;;;;22.00;20.70;;;;;;;;;;5137314;27;20228;-77
2023/02/28 08:18:42;;;;;;;22.58;21.27;;;;;;;;;;5134904;27;20676;-79
2023/02/28 08:21:09;;;;;;;21.75;20.55;;;;;;;;;;5137792;27;20269;-78
2023/02/28 08:23:36;;;;;;;21.17;20.08;;;;;;;;;;5136945;27;20211;-78
2023/02/28 08:26:03;;;;;;;21.25;20.15;;;;;;;;;;5137092;27;20231;-79
2023/02/28 08:28:30;;;;;;;21.40;20.20;;;;;;;;;;5136843;27;20212;-78
2023/02/28 08:30:58;;;;;;;21.00;19.80;;;;;;;;;;5136996;27;20635;-78
2023/02/28 08:33:26;;;;;;;21.15;20.05;;;;;;;;;;5136748;27;20204;-79
2023/02/28 08:35:55;;;;;;;21.30;20.17;;;;;;;;;;5137259;27;20228;-77
2023/02/28 08:38:22;;;;;;;21.83;20.42;;;;;;;;;;5137181;27;20210;-79
2023/02/28 08:40:49;;;;;;;21.20;20.10;;;;;;;;;;5136431;27;20218;-78
2023/02/28 08:43:16;;;;;;;21.77;20.58;;;;;;;;;;5136631;27;20253;-78
2023/02/28 08:45:43;;;;;;;21.10;20.00;;;;;;;;;;5137365;27;20221;-78
2023/02/28 08:48:10;;;;;;;21.15;19.95;;;;;;;;;;5136651;27;20729;-78
2023/02/28 08:50:38;;;;;;;21.23;20.13;;;;;;;;;;5137018;27;20205;-78
2023/02/28 08:53:05;;;;;;;21.38;20.17;;;;;;;;;;5136398;27;20204;-78
2023/02/28 08:55:32;;;;;;;22.25;20.95;;;;;;;;;;5137072;27;20269;-78
2023/02/28 08:58:00;;;;;;;21.25;20.05;;;;;;;;;;5137523;27;20204;-78
2023/02/28 09:00:28;;;;;;;22.23;20.92;;;;;;;;;;5137515;27;20211;-78
2023/02/28 09:02:55;;;;;;;22.52;21.13;;;;;;;;;;5136392;27;20744;-78
2023/02/28 09:05:22;;;;;;;22.30;21.10;;;;;;;;;;5136322;27;20307;-78
2023/02/28 09:07:51;;;;;;;22.20;21.00;;;;;;;;;;5139674;27;20672;-78
2023/02/28 09:10:18;;;;;;;21.77;20.58;;;;;;;;;;5136962;27;20602;-77
2023/02/28 09:12:46;;;;;;;22.33;21.15;;;;;;;;;;5135009;27;20257;-78
2023/02/28 09:15:13;;;;;;;21.42;20.30;;;;;;;;;;5136633;27;20235;-78
2023/02/28 09:17:40;;;;;;;21.67;20.48;;;;;;;;;;5136406;27;20245;-78
2023/02/28 09:20:08;;;;;;;21.75;20.58;;;;;;;;;;5136211;27;20653;-78
2023/02/28 09:22:35;;;;;;;21.42;20.23;;;;;;;;;;5135192;27;20383;-78
2023/02/28 09:25:04;;;;;;;22.50;20.92;;;;;;;;;;5135659;27;20212;-78
2023/02/28 09:27:31;;;;;;;21.33;20.23;;;;;;;;;;5136225;27;20234;-77
2023/02/28 09:29:58;;;;;;;21.55;20.25;;;;;;;;;;5136198;27;20261;-77
2023/02/28 09:32:25;;;;;;;22.98;21.67;;;;;;;;;;5135465;27;20198;-78
2023/02/28 09:34:52;;;;;;;22.00;20.80;;;;;;;;;;5135460;27;20201;-78
2023/02/28 09:37:19;;;;;;;22.95;21.75;;;;;;;;;;5135733;27;20181;-77
2023/02/28 09:39:46;;;;;;;21.95;20.75;;;;;;;;;;5136082;27;20207;-78
2023/02/28 09:42:19;;;;;;;22.08;20.85;;;;;;;;;;5135239;27;20221;-78
2023/02/28 09:44:48;;;;;;;22.50;21.00;;;;;;;;;;5135466;27;20247;-79
2023/02/28 09:47:19;;;;;;;22.73;20.95;;;;;;;;;;5135787;27;20208;-77
2023/02/28 09:49:47;;;;;;;24.05;22.63;;;;;;;;;;5135792;27;20209;-78
2023/02/28 09:52:17;;;;;;;23.77;22.48;;;;;;;;;;5134994;27;20719;-78
2023/02/28 09:54:44;;;;;;;22.90;21.70;;;;;;;;;;5135396;27;20204;-78
2023/02/28 09:57:15;;;;;;;22.98;21.50;;;;;;;;;;5135560;27;20274;-78
2023/02/28 09:59:50;;;;;;;22.85;21.55;;;;;;;;;;5135988;27;20197;-78
2023/02/28 10:02:22;;;;;;;22.92;21.48;;;;;;;;;;5134711;27;20250;-77
2023/02/28 10:04:54;;;;;;;21.92;20.52;;;;;;;;;;5135108;27;20205;-77
2023/02/28 10:07:26;;;;;;;22.67;21.38;;;;;;;;;;5135646;27;20204;-78
2023/02/28 10:09:54;;;;;;;24.85;23.35;;;;;;;;;;5135534;27;20190;-77
2023/02/28 10:12:22;;;;;;;23.48;22.17;;;;;;;;;;5134914;27;20198;-78
2023/02/28 10:14:53;;;;;;;185.35;93.63;;;;;;;;;;5134397;27;20578;-78
2023/02/28 10:17:22;;;;;;;22.08;20.88;;;;;;;;;;5135272;27;20257;-78
2023/02/28 10:19:55;;;;;;;23.45;22.15;;;;;;;;;;5135339;27;20208;-78
2023/02/28 10:22:23;;;;;;;23.55;22.25;;;;;;;;;;5134670;27;20206;-78
2023/02/28 10:24:51;;;;;;;23.05;21.67;;;;;;;;;;5134774;27;20197;-79
2023/02/28 10:27:19;;;;;;;23.45;21.88;;;;;;;;;;5134539;27;20209;-78
2023/02/28 10:29:47;;;;;;;22.95;21.73;;;;;;;;;;5135157;27;20208;-78
2023/02/28 10:32:17;;;;;;;22.42;21.13;;;;;;;;;;5133991;27;20206;-80
2023/02/28 10:34:44;;;;;;;21.85;20.60;;;;;;;;;;5135001;27;20270;-77
2023/02/28 10:37:12;;;;;;;22.95;21.55;;;;;;;;;;5134959;27;20254;-78
2023/02/28 10:39:39;;;;;;;22.85;21.35;;;;;;;;;;5135815;27;20204;-78
2023/02/28 10:42:19;;;;;;;23.40;21.90;;;;;;;;;;5134067;27;20764;-77
2023/02/28 10:44:46;;;;;;;23.13;21.85;;;;;;;;;;5134056;27;20691;-79
2023/02/28 10:47:18;;;;;;;21.90;20.80;;;;;;;;;;5134628;27;20201;-77
2023/02/28 10:49:48;;;;;;;22.13;20.83;;;;;;;;;;5134801;28;20196;-78
2023/02/28 10:52:34;;;;;;;24.25;22.83;;;;;;;;;;5132769;28;20197;-83
2023/02/28 10:55:17;;;;;;;22.08;20.88;;;;;;;;;;5131961;28;20196;-88
2023/02/28 10:57:44;;;;;;;22.85;21.63;;;;;;;;;;5144952;28;20254;-85
2023/02/28 11:00:15;;;;;;;22.02;20.83;;;;;;;;;;5139470;28;20227;-78
2023/02/28 11:02:44;;;;;;;23.95;22.50;;;;;;;;;;5140370;28;20235;-87
2023/02/28 11:05:25;;;;;;;23.88;22.58;;;;;;;;;;5141296;28;20224;-88
2023/02/28 11:07:53;;;;;;;23.10;21.75;;;;;;;;;;5140951;28;20576;-87
2023/02/28 11:10:21;;;;;;;23.17;21.88;;;;;;;;;;5141111;28;20294;-88
2023/02/28 11:12:48;;;;;;;23.83;22.45;;;;;;;;;;5138590;27;20625;-88
2023/02/28 11:15:24;;;;;;;23.33;21.98;;;;;;;;;;5144882;28;20225;-86
2023/02/28 11:17:56;;;;;;;23.70;22.00;;;;;;;;;;5146960;28;20193;-86
2023/02/28 11:20:24;;;;;;;22.92;21.63;;;;;;;;;;5118924;28;20598;-85
2023/02/28 11:22:52;;;;;;;24.00;22.25;;;;;;;;;;5118820;28;20206;-82
2023/02/28 11:25:22;;;;;;;24.00;22.70;;;;;;;;;;5117966;28;20311;-80
2023/02/28 11:27:50;;;;;;;22.98;21.77;;;;;;;;;;5118587;28;20206;-80
2023/02/28 11:30:28;;;;;;;24.02;22.73;;;;;;;;;;5117578;28;20205;-81
2023/02/28 11:32:56;;;;;;;22.75;21.50;;;;;;;;;;5135968;28;20261;-81
2023/02/28 11:35:25;;;;;;;25.42;23.65;;;;;;;;;;5138195;28;20278;-80
2023/02/28 11:37:53;;;;;;;23.13;21.73;;;;;;;;;;5137390;28;20289;-80
2023/02/28 11:40:22;;;;;;;22.15;20.90;;;;;;;;;;5136310;28;20201;-80
2023/02/28 11:42:54;;;;;;;23.65;22.25;;;;;;;;;;5136385;28;20688;-79
2023/02/28 11:45:33;;;;;;;22.90;21.60;;;;;;;;;;5141308;27;20232;-80
2023/02/28 11:48:06;;;;;;;22.70;21.40;;;;;;;;;;5141913;27;20188;-80
2023/02/28 11:50:41;;;;;;;22.63;21.42;;;;;;;;;;5142846;27;20190;-80
2023/02/28 11:53:15;;;;;;;22.90;21.70;;;;;;;;;;5141622;27;20234;-80
2023/02/28 11:55:45;;;;;;;22.63;21.33;;;;;;;;;;5142179;27;20255;-80
2023/02/28 11:58:18;;;;;;;21.73;20.52;;;;;;;;;;5142084;27;20193;-79
2023/02/28 12:00:54;;;;;;;21.58;20.48;;;;;;;;;;5142820;27;20211;-80
2023/02/28 12:03:28;;;;;;;21.88;20.67;;;;;;;;;;5140987;27;20220;-80
2023/02/28 12:05:59;;;;;;;22.08;20.65;;;;;;;;;;5142021;27;20256;-80
2023/02/28 12:08:41;;;;;;;22.73;21.20;;;;;;;;;;5142311;27;20238;-80
2023/02/28 12:11:12;;;;;;;21.95;20.75;;;;;;;;;;5141987;27;20193;-80
2023/02/28 12:13:45;;;;;;;20.77;19.67;;;;;;;;;;5141432;27;20230;-80
2023/02/28 12:16:22;;;;;;;22.45;21.25;;;;;;;;;;5141953;27;20247;-80
2023/02/28 12:18:55;;;;;;;22.08;20.98;;;;;;;;;;5142664;27;20235;-80
2023/02/28 12:21:27;;;;;;;24.10;22.60;;;;;;;;;;5141567;27;20270;-85
2023/02/28 12:23:59;;;;;;;22.27;20.98;;;;;;;;;;5142508;27;20238;-80
2023/02/28 12:26:29;;;;;;;22.45;21.25;;;;;;;;;;5142025;27;20236;-79
2023/02/28 12:29:00;;;;;;;22.27;21.00;;;;;;;;;;5141990;27;20246;-80
2023/02/28 12:31:30;;;;;;;22.55;21.35;;;;;;;;;;5141590;27;20262;-81
2023/02/28 12:34:02;;;;;;;22.75;21.40;;;;;;;;;;5141366;27;20726;-80
2023/02/28 12:36:30;;;;;;;23.05;21.70;;;;;;;;;;5141660;27;20221;-81
2023/02/28 12:39:00;;;;;;;24.13;22.73;;;;;;;;;;5142429;27;20208;-80
2023/02/28 12:41:31;;;;;;;23.88;22.58;;;;;;;;;;5140561;27;20194;-81
2023/02/28 12:44:07;;;;;;;22.90;21.60;;;;;;;;;;5140972;27;20233;-80
2023/02/28 12:46:36;;;;;;;22.33;21.13;;;;;;;;;;5140733;27;20249;-80
2023/02/28 12:49:06;;;;;;;22.67;21.38;;;;;;;;;;5140820;27;20205;-80
2023/02/28 12:51:34;;;;;;;23.48;22.13;;;;;;;;;;5140348;27;20258;-80
2023/02/28 12:54:05;;;;;;;23.95;22.45;;;;;;;;;;5140854;27;20261;-84
2023/02/28 12:56:38;;;;;;;22.90;21.45;;;;;;;;;;5139975;27;20794;-80
2023/02/28 12:59:07;;;;;;;23.52;22.15;;;;;;;;;;5140834;27;20178;-80
2023/02/28 13:01:43;;;;;;;23.88;22.48;;;;;;;;;;5140276;27;20234;-81
2023/02/28 13:04:23;;;;;;;23.33;22.02;;;;;;;;;;5140642;27;20240;-81
2023/02/28 13:07:00;;;;;;;24.05;22.40;;;;;;;;;;5140953;27;20221;-79
2023/02/28 13:09:29;;;;;;;22.65;21.45;;;;;;;;;;5140763;27;20181;-80
2023/02/28 13:11:57;;;;;;;23.35;22.15;;;;;;;;;;5140383;27;20200;-80
2023/02/28 13:14:30;;;;;;;23.17;21.85;;;;;;;;;;5140734;27;20212;-81
2023/02/28 13:16:59;;;;;;;22.48;21.27;;;;;;;;;;5141317;27;20225;-80
2023/02/28 13:19:30;;;;;;;22.55;21.35;;;;;;;;;;5153553;27;20223;-80
2023/02/28 13:21:58;;;;;;;22.52;21.33;;;;;;;;;;5154485;27;20215;-81
2023/02/28 13:24:38;;;;;;;23.50;22.25;;;;;;;;;;5152304;27;20225;-81
2023/02/28 13:27:14;;;;;;;22.48;21.27;;;;;;;;;;5142550;27;20777;-80
2023/02/28 13:29:42;;;;;;;23.05;21.55;;;;;;;;;;5141010;27;20205;-80
2023/02/28 13:32:29;;;;;;;22.98;21.75;;;;;;;;;;5139143;27;20269;-81
2023/02/28 13:35:30;;;;;;;23.15;21.85;;;;;;;;;;5140764;27;20268;-81
2023/02/28 13:38:12;;;;;;;24.45;23.15;;;;;;;;;;5057943;28;20648;-81
2023/02/28 13:40:39;;;;;;;24.15;22.75;;;;;;;;;;5057084;28;20262;-80
2023/02/28 13:43:09;;;;;;;23.25;21.95;;;;;;;;;;5102417;27;20216;-83
2023/02/28 13:45:38;;;;;;;23.95;22.65;;;;;;;;;;5139051;27;20699;-81
2023/02/28 13:48:05;;;;;;;25.77;24.38;;;;;;;;;;5140353;27;20204;-80
2023/02/28 13:50:37;;;;;;;23.58;22.27;;;;;;;;;;5140235;27;20200;-81
2023/02/28 13:53:19;;;;;;;24.35;22.95;;;;;;;;;;5139954;27;20201;-82
2023/02/28 13:55:48;;;;;;;25.30;23.80;;;;;;;;;;5139492;27;20220;-80
2023/02/28 13:58:25;;;;;;;24.15;22.75;;;;;;;;;;5140103;27;20205;-80
2023/02/28 14:01:13;;;;;;;23.40;22.00;;;;;;;;;;5139983;27;20189;-81
2023/02/28 14:03:46;;;;;;;23.88;22.33;;;;;;;;;;5139609;27;20205;-80
2023/02/28 14:06:24;;;;;;;23.48;22.17;;;;;;;;;;5139244;27;20221;-80
2023/02/28 14:08:55;;;;;;;23.90;22.55;;;;;;;;;;5139882;27;20193;-79
2023/02/28 14:11:26;;;;;;;22.90;21.40;;;;;;;;;;5138558;27;20270;-82
2023/02/28 14:13:53;;;;;;;23.70;22.30;;;;;;;;;;5141899;27;20205;-83
2023/02/28 14:16:23;;;;;;;23.25;21.95;;;;;;;;;;5140984;27;20220;-86
2023/02/28 14:18:52;;;;;;;23.92;22.63;;;;;;;;;;5139923;27;20197;-82
2023/02/28 14:21:25;;;;;;;24.60;23.20;;;;;;;;;;5139568;27;20205;-83
2023/02/28 14:24:04;;;;;;;24.08;22.67;;;;;;;;;;5139699;27;20280;-82
2023/02/28 14:26:38;;;;;;;24.27;22.87;;;;;;;;;;5140467;27;20769;-82
2023/02/28 14:29:21;;;;;;;23.80;22.50;;;;;;;;;;5140420;27;20441;-83